sensor_id;sensor_type;location;lat;lon;timestamp;temperature;humidity
17715;DHT22;8977;50.902;4.314;2023-01-06T00:02:23;13.80;99.90
17715;DHT22;8977;50.902;4.314;2023-01-06T00:04:50;13.80;99.90
17715;DHT22;8977;50.902;4.314;2023-01-06T00:07:17;13.80;99.90
17715;DHT22;8977;50.902;4.314;2023-01-06T00:09:43;13.80;99.90
17715;DHT22;8977;50.902;4.314;2023-01-06T00:12:10;13.80;99.90
17715;DHT22;8977;50.902;4.314;2023-01-06T00:14:37;13.80;99.90
17715;DHT22;8977;50.902;4.314;2023-01-06T00:17:05;13.80;99.90
17715;DHT22;8977;50.902;4.314;2023-01-06T00:19:32;13.80;99.90
17715;DHT22;8977;50.902;4.314;2023-01-06T00:21:59;13.80;99.90
17715;DHT22;8977;50.902;4.314;2023-01-06T00:24:25;13.80;99.90
17715;DHT22;8977;50.902;4.314;2023-01-06T00:26:52;13.80;99.90
17715;DHT22;8977;50.902;4.314;2023-01-06T00:29:19;13.80;99.90
17715;DHT22;8977;50.902;4.314;2023-01-06T00:31:46;13.90;99.90
17715;DHT22;8977;50.902;4.314;2023-01-06T00:34:14;13.80;99.90
17715;DHT22;8977;50.902;4.314;2023-01-06T00:36:41;13.80;99.90
17715;DHT22;8977;50.902;4.314;2023-01-06T00:39:10;13.80;99.90
17715;DHT22;8977;50.902;4.314;2023-01-06T00:41:37;13.80;99.90
17715;DHT22;8977;50.902;4.314;2023-01-06T00:44:22;13.80;99.90
17715;DHT22;8977;50.902;4.314;2023-01-06T00:46:49;13.90;99.90
17715;DHT22;8977;50.902;4.314;2023-01-06T00:49:17;13.80;99.90
17715;DHT22;8977;50.902;4.314;2023-01-06T00:51:44;13.80;99.90
17715;DHT22;8977;50.902;4.314;2023-01-06T00:54:12;13.80;99.90
17715;DHT22;8977;50.902;4.314;2023-01-06T00:56:41;13.80;99.90
17715;DHT22;8977;50.902;4.314;2023-01-06T00:59:09;13.80;99.90
17715;DHT22;8977;50.902;4.314;2023-01-06T01:01:37;13.80;99.90
17715;DHT22;8977;50.902;4.314;2023-01-06T01:04:04;13.80;99.90
17715;DHT22;8977;50.902;4.314;2023-01-06T01:06:33;13.80;99.90
17715;DHT22;8977;50.902;4.314;2023-01-06T01:09:01;13.80;99.90
17715;DHT22;8977;50.902;4.314;2023-01-06T01:11:28;13.80;99.90
17715;DHT22;8977;50.902;4.314;2023-01-06T01:14:14;13.80;99.90
17715;DHT22;8977;50.902;4.314;2023-01-06T01:16:41;13.80;99.90
17715;DHT22;8977;50.902;4.314;2023-01-06T01:19:08;13.80;99.90
17715;DHT22;8977;50.902;4.314;2023-01-06T01:21:37;13.80;99.90
17715;DHT22;8977;50.902;4.314;2023-01-06T01:24:04;13.80;99.90
17715;DHT22;8977;50.902;4.314;2023-01-06T01:26:31;13.90;99.90
17715;DHT22;8977;50.902;4.314;2023-01-06T01:28:58;13.90;99.90
17715;DHT22;8977;50.902;4.314;2023-01-06T01:31:25;13.90;99.90
17715;DHT22;8977;50.902;4.314;2023-01-06T01:33:52;13.80;99.90
17715;DHT22;8977;50.902;4.314;2023-01-06T01:36:19;13.80;99.90
17715;DHT22;8977;50.902;4.314;2023-01-06T01:38:47;13.80;99.90
17715;DHT22;8977;50.902;4.314;2023-01-06T01:41:16;13.80;99.90
17715;DHT22;8977;50.902;4.314;2023-01-06T01:43:45;13.80;99.90
17715;DHT22;8977;50.902;4.314;2023-01-06T01:46:15;13.80;99.90
17715;DHT22;8977;50.902;4.314;2023-01-06T01:48:42;13.80;99.90
17715;DHT22;8977;50.902;4.314;2023-01-06T01:51:12;13.80;99.90
17715;DHT22;8977;50.902;4.314;2023-01-06T01:53:46;13.90;99.90
17715;DHT22;8977;50.902;4.314;2023-01-06T01:56:17;13.90;99.90
17715;DHT22;8977;50.902;4.314;2023-01-06T01:58:50;13.80;99.90
17715;DHT22;8977;50.902;4.314;2023-01-06T02:01:18;13.80;99.90
17715;DHT22;8977;50.902;4.314;2023-01-06T02:03:45;13.70;99.90
17715;DHT22;8977;50.902;4.314;2023-01-06T02:06:17;13.80;99.90
17715;DHT22;8977;50.902;4.314;2023-01-06T02:08:48;13.80;99.90
17715;DHT22;8977;50.902;4.314;2023-01-06T02:11:20;13.70;99.90
17715;DHT22;8977;50.902;4.314;2023-01-06T02:13:51;13.70;99.90
17715;DHT22;8977;50.902;4.314;2023-01-06T02:16:22;13.70;99.90
17715;DHT22;8977;50.902;4.314;2023-01-06T02:18:58;13.70;99.90
17715;DHT22;8977;50.902;4.314;2023-01-06T02:21:45;13.80;99.90
17715;DHT22;8977;50.902;4.314;2023-01-06T02:24:39;13.80;99.90
17715;DHT22;8977;50.902;4.314;2023-01-06T02:27:34;13.80;99.90
17715;DHT22;8977;50.902;4.314;2023-01-06T02:33:21;13.80;99.90
17715;DHT22;8977;50.902;4.314;2023-01-06T02:36:23;13.80;99.90
17715;DHT22;8977;50.902;4.314;2023-01-06T02:39:12;13.70;99.90
17715;DHT22;8977;50.902;4.314;2023-01-06T02:41:42;13.70;99.90
17715;DHT22;8977;50.902;4.314;2023-01-06T02:44:18;13.70;99.90
17715;DHT22;8977;50.902;4.314;2023-01-06T02:47:02;13.70;99.90
17715;DHT22;8977;50.902;4.314;2023-01-06T02:49:40;13.70;99.90
17715;DHT22;8977;50.902;4.314;2023-01-06T02:52:11;13.60;99.90
17715;DHT22;8977;50.902;4.314;2023-01-06T02:54:43;13.60;99.90
17715;DHT22;8977;50.902;4.314;2023-01-06T02:57:19;13.60;99.90
17715;DHT22;8977;50.902;4.314;2023-01-06T02:59:51;13.60;99.90
17715;DHT22;8977;50.902;4.314;2023-01-06T03:02:21;13.60;99.90
17715;DHT22;8977;50.902;4.314;2023-01-06T03:04:51;13.50;99.90
17715;DHT22;8977;50.902;4.314;2023-01-06T03:07:22;13.60;99.90
17715;DHT22;8977;50.902;4.314;2023-01-06T03:09:50;13.60;99.90
17715;DHT22;8977;50.902;4.314;2023-01-06T03:12:22;13.60;99.90
17715;DHT22;8977;50.902;4.314;2023-01-06T03:14:53;13.60;99.90
17715;DHT22;8977;50.902;4.314;2023-01-06T03:17:21;13.70;99.90
17715;DHT22;8977;50.902;4.314;2023-01-06T03:19:49;13.70;99.90
17715;DHT22;8977;50.902;4.314;2023-01-06T03:22:16;13.70;99.90
17715;DHT22;8977;50.902;4.314;2023-01-06T03:24:44;13.70;99.90
17715;DHT22;8977;50.902;4.314;2023-01-06T03:27:11;13.70;99.90
17715;DHT22;8977;50.902;4.314;2023-01-06T03:29:38;13.60;99.90
17715;DHT22;8977;50.902;4.314;2023-01-06T03:32:14;13.60;99.90
17715;DHT22;8977;50.902;4.314;2023-01-06T03:34:54;13.60;99.90
17715;DHT22;8977;50.902;4.314;2023-01-06T03:37:25;13.60;99.90
17715;DHT22;8977;50.902;4.314;2023-01-06T03:39:59;13.60;99.90
17715;DHT22;8977;50.902;4.314;2023-01-06T03:42:30;13.60;99.90
17715;DHT22;8977;50.902;4.314;2023-01-06T03:45:35;13.60;99.90
17715;DHT22;8977;50.902;4.314;2023-01-06T03:48:09;13.60;99.90
17715;DHT22;8977;50.902;4.314;2023-01-06T03:50:41;13.60;99.90
17715;DHT22;8977;50.902;4.314;2023-01-06T03:53:17;13.60;99.90
17715;DHT22;8977;50.902;4.314;2023-01-06T03:55:47;13.60;99.90
17715;DHT22;8977;50.902;4.314;2023-01-06T03:58:16;13.60;99.90
17715;DHT22;8977;50.902;4.314;2023-01-06T04:00:43;13.60;99.90
17715;DHT22;8977;50.902;4.314;2023-01-06T04:03:12;13.50;99.90
17715;DHT22;8977;50.902;4.314;2023-01-06T04:05:41;13.60;99.90
17715;DHT22;8977;50.902;4.314;2023-01-06T04:08:08;13.60;99.90
17715;DHT22;8977;50.902;4.314;2023-01-06T04:10:35;13.80;99.90
17715;DHT22;8977;50.902;4.314;2023-01-06T04:13:01;13.60;99.90
17715;DHT22;8977;50.902;4.314;2023-01-06T04:15:27;13.60;99.90
17715;DHT22;8977;50.902;4.314;2023-01-06T04:17:55;13.60;99.90
17715;DHT22;8977;50.902;4.314;2023-01-06T04:20:23;13.60;99.90
17715;DHT22;8977;50.902;4.314;2023-01-06T04:22:53;13.60;99.90
17715;DHT22;8977;50.902;4.314;2023-01-06T04:25:20;13.60;99.90
17715;DHT22;8977;50.902;4.314;2023-01-06T04:27:48;13.60;99.90
17715;DHT22;8977;50.902;4.314;2023-01-06T04:30:15;13.50;99.90
17715;DHT22;8977;50.902;4.314;2023-01-06T04:32:42;13.60;99.90
17715;DHT22;8977;50.902;4.314;2023-01-06T04:35:10;13.60;99.90
17715;DHT22;8977;50.902;4.314;2023-01-06T04:37:37;13.60;99.90
17715;DHT22;8977;50.902;4.314;2023-01-06T04:40:06;13.60;99.90
17715;DHT22;8977;50.902;4.314;2023-01-06T04:42:33;13.60;99.90
17715;DHT22;8977;50.902;4.314;2023-01-06T04:45:14;13.60;99.90
17715;DHT22;8977;50.902;4.314;2023-01-06T04:47:41;13.60;99.90
17715;DHT22;8977;50.902;4.314;2023-01-06T04:50:09;13.60;99.90
17715;DHT22;8977;50.902;4.314;2023-01-06T04:52:36;13.60;99.90
17715;DHT22;8977;50.902;4.314;2023-01-06T04:55:04;13.60;99.90
17715;DHT22;8977;50.902;4.314;2023-01-06T04:57:31;13.60;99.90
17715;DHT22;8977;50.902;4.314;2023-01-06T04:59:58;13.50;99.90
17715;DHT22;8977;50.902;4.314;2023-01-06T05:02:25;13.60;99.90
17715;DHT22;8977;50.902;4.314;2023-01-06T05:04:52;13.60;99.90
17715;DHT22;8977;50.902;4.314;2023-01-06T05:07:18;13.60;99.90
17715;DHT22;8977;50.902;4.314;2023-01-06T05:09:45;13.50;99.90
17715;DHT22;8977;50.902;4.314;2023-01-06T05:12:13;13.50;99.90
17715;DHT22;8977;50.902;4.314;2023-01-06T05:14:40;13.50;99.90
17715;DHT22;8977;50.902;4.314;2023-01-06T05:17:07;13.50;99.90
17715;DHT22;8977;50.902;4.314;2023-01-06T05:19:34;13.50;99.90
17715;DHT22;8977;50.902;4.314;2023-01-06T05:22:01;13.60;99.90
17715;DHT22;8977;50.902;4.314;2023-01-06T05:24:27;13.60;99.90
17715;DHT22;8977;50.902;4.314;2023-01-06T05:26:54;13.60;99.90
17715;DHT22;8977;50.902;4.314;2023-01-06T05:29:22;13.60;99.90
17715;DHT22;8977;50.902;4.314;2023-01-06T05:31:49;13.60;99.90
17715;DHT22;8977;50.902;4.314;2023-01-06T05:34:16;13.60;99.90
17715;DHT22;8977;50.902;4.314;2023-01-06T05:36:43;13.60;99.90
17715;DHT22;8977;50.902;4.314;2023-01-06T05:39:09;13.50;99.90
17715;DHT22;8977;50.902;4.314;2023-01-06T05:41:36;13.50;99.90
17715;DHT22;8977;50.902;4.314;2023-01-06T05:44:03;13.60;99.90
17715;DHT22;8977;50.902;4.314;2023-01-06T05:46:32;13.50;99.90
17715;DHT22;8977;50.902;4.314;2023-01-06T05:48:59;13.50;99.90
17715;DHT22;8977;50.902;4.314;2023-01-06T05:51:27;13.50;99.90
17715;DHT22;8977;50.902;4.314;2023-01-06T05:53:54;13.60;99.90
17715;DHT22;8977;50.902;4.314;2023-01-06T05:56:21;13.60;99.90
17715;DHT22;8977;50.902;4.314;2023-01-06T05:58:49;13.60;99.90
17715;DHT22;8977;50.902;4.314;2023-01-06T06:01:18;13.60;99.90
17715;DHT22;8977;50.902;4.314;2023-01-06T06:03:46;13.60;99.90
17715;DHT22;8977;50.902;4.314;2023-01-06T06:06:14;13.60;99.90
17715;DHT22;8977;50.902;4.314;2023-01-06T06:08:41;13.70;99.90
17715;DHT22;8977;50.902;4.314;2023-01-06T06:11:10;13.70;99.90
17715;DHT22;8977;50.902;4.314;2023-01-06T06:13:37;13.60;99.90
17715;DHT22;8977;50.902;4.314;2023-01-06T06:16:05;13.60;99.90
17715;DHT22;8977;50.902;4.314;2023-01-06T06:18:32;13.70;99.90
17715;DHT22;8977;50.902;4.314;2023-01-06T06:21:01;13.70;99.90
17715;DHT22;8977;50.902;4.314;2023-01-06T06:23:28;13.70;99.90
17715;DHT22;8977;50.902;4.314;2023-01-06T06:25:55;13.60;99.90
17715;DHT22;8977;50.902;4.314;2023-01-06T06:28:22;13.60;99.90
17715;DHT22;8977;50.902;4.314;2023-01-06T06:30:49;13.50;99.90
17715;DHT22;8977;50.902;4.314;2023-01-06T06:33:16;13.50;99.90
17715;DHT22;8977;50.902;4.314;2023-01-06T06:35:43;13.60;99.90
17715;DHT22;8977;50.902;4.314;2023-01-06T06:38:11;13.60;99.90
17715;DHT22;8977;50.902;4.314;2023-01-06T06:40:38;13.60;99.90
17715;DHT22;8977;50.902;4.314;2023-01-06T06:43:08;13.70;99.90
17715;DHT22;8977;50.902;4.314;2023-01-06T06:45:35;13.70;99.90
17715;DHT22;8977;50.902;4.314;2023-01-06T06:48:02;13.80;99.90
17715;DHT22;8977;50.902;4.314;2023-01-06T06:50:29;13.80;99.90
17715;DHT22;8977;50.902;4.314;2023-01-06T06:52:56;13.70;99.90
17715;DHT22;8977;50.902;4.314;2023-01-06T06:55:24;13.60;99.90
17715;DHT22;8977;50.902;4.314;2023-01-06T06:57:51;13.60;99.90
17715;DHT22;8977;50.902;4.314;2023-01-06T07:00:17;13.60;99.90
17715;DHT22;8977;50.902;4.314;2023-01-06T07:02:46;13.70;99.90
17715;DHT22;8977;50.902;4.314;2023-01-06T07:05:13;13.70;99.90
17715;DHT22;8977;50.902;4.314;2023-01-06T07:07:40;13.70;99.90
17715;DHT22;8977;50.902;4.314;2023-01-06T07:10:11;13.70;99.90
17715;DHT22;8977;50.902;4.314;2023-01-06T07:12:40;13.70;99.90
17715;DHT22;8977;50.902;4.314;2023-01-06T07:15:07;13.60;99.90
17715;DHT22;8977;50.902;4.314;2023-01-06T07:17:35;13.60;99.90
17715;DHT22;8977;50.902;4.314;2023-01-06T07:20:02;13.60;99.90
17715;DHT22;8977;50.902;4.314;2023-01-06T07:22:28;13.60;99.90
17715;DHT22;8977;50.902;4.314;2023-01-06T07:24:55;13.70;99.90
17715;DHT22;8977;50.902;4.314;2023-01-06T07:27:22;13.60;99.90
17715;DHT22;8977;50.902;4.314;2023-01-06T07:29:50;13.60;99.90
17715;DHT22;8977;50.902;4.314;2023-01-06T07:32:17;13.50;99.90
17715;DHT22;8977;50.902;4.314;2023-01-06T07:34:44;13.60;99.90
17715;DHT22;8977;50.902;4.314;2023-01-06T07:37:10;13.70;99.90
17715;DHT22;8977;50.902;4.314;2023-01-06T07:39:37;13.50;99.90
17715;DHT22;8977;50.902;4.314;2023-01-06T07:42:06;13.50;99.90
17715;DHT22;8977;50.902;4.314;2023-01-06T07:44:33;13.50;99.90
17715;DHT22;8977;50.902;4.314;2023-01-06T07:47:01;13.50;99.90
17715;DHT22;8977;50.902;4.314;2023-01-06T07:49:28;13.50;99.90
17715;DHT22;8977;50.902;4.314;2023-01-06T07:51:55;13.50;99.90
17715;DHT22;8977;50.902;4.314;2023-01-06T07:54:22;13.50;99.90
17715;DHT22;8977;50.902;4.314;2023-01-06T07:56:49;13.50;99.90
17715;DHT22;8977;50.902;4.314;2023-01-06T07:59:15;13.40;99.90
17715;DHT22;8977;50.902;4.314;2023-01-06T08:01:42;13.50;99.90
17715;DHT22;8977;50.902;4.314;2023-01-06T08:04:10;13.50;99.90
17715;DHT22;8977;50.902;4.314;2023-01-06T08:06:38;13.60;99.90
17715;DHT22;8977;50.902;4.314;2023-01-06T08:09:05;13.60;99.90
17715;DHT22;8977;50.902;4.314;2023-01-06T08:11:32;13.60;99.90
17715;DHT22;8977;50.902;4.314;2023-01-06T08:13:59;13.60;99.90
17715;DHT22;8977;50.902;4.314;2023-01-06T08:16:26;13.60;99.90
17715;DHT22;8977;50.902;4.314;2023-01-06T08:18:53;13.60;99.90
17715;DHT22;8977;50.902;4.314;2023-01-06T08:21:21;13.60;99.90
17715;DHT22;8977;50.902;4.314;2023-01-06T08:23:48;13.60;99.90
17715;DHT22;8977;50.902;4.314;2023-01-06T08:26:16;13.60;99.90
17715;DHT22;8977;50.902;4.314;2023-01-06T08:28:44;13.50;99.90
17715;DHT22;8977;50.902;4.314;2023-01-06T08:31:12;13.60;99.90
17715;DHT22;8977;50.902;4.314;2023-01-06T08:33:40;13.60;99.90
17715;DHT22;8977;50.902;4.314;2023-01-06T08:36:09;13.60;99.90
17715;DHT22;8977;50.902;4.314;2023-01-06T08:38:38;13.60;99.90
17715;DHT22;8977;50.902;4.314;2023-01-06T08:41:06;13.50;99.90
17715;DHT22;8977;50.902;4.314;2023-01-06T08:43:33;13.60;99.90
17715;DHT22;8977;50.902;4.314;2023-01-06T08:46:02;13.60;99.90
17715;DHT22;8977;50.902;4.314;2023-01-06T08:48:29;13.60;99.90
17715;DHT22;8977;50.902;4.314;2023-01-06T08:51:01;13.60;99.90
17715;DHT22;8977;50.902;4.314;2023-01-06T08:53:28;13.60;99.90
17715;DHT22;8977;50.902;4.314;2023-01-06T08:55:56;13.60;99.90
17715;DHT22;8977;50.902;4.314;2023-01-06T08:58:23;13.50;99.90
17715;DHT22;8977;50.902;4.314;2023-01-06T09:00:50;13.50;99.90
17715;DHT22;8977;50.902;4.314;2023-01-06T09:03:17;13.60;99.90
17715;DHT22;8977;50.902;4.314;2023-01-06T09:05:51;13.60;99.90
17715;DHT22;8977;50.902;4.314;2023-01-06T09:08:18;13.60;99.90
17715;DHT22;8977;50.902;4.314;2023-01-06T09:10:44;13.60;99.90
17715;DHT22;8977;50.902;4.314;2023-01-06T09:13:13;13.60;99.90
17715;DHT22;8977;50.902;4.314;2023-01-06T09:15:40;13.50;99.90
17715;DHT22;8977;50.902;4.314;2023-01-06T09:18:08;13.50;99.90
17715;DHT22;8977;50.902;4.314;2023-01-06T09:20:35;13.60;99.90
17715;DHT22;8977;50.902;4.314;2023-01-06T09:23:02;13.60;99.90
17715;DHT22;8977;50.902;4.314;2023-01-06T09:25:28;13.50;99.90
17715;DHT22;8977;50.902;4.314;2023-01-06T09:27:56;13.60;99.90
17715;DHT22;8977;50.902;4.314;2023-01-06T09:30:25;13.60;99.90
17715;DHT22;8977;50.902;4.314;2023-01-06T09:32:52;13.60;99.90
17715;DHT22;8977;50.902;4.314;2023-01-06T09:35:19;13.60;99.90
17715;DHT22;8977;50.902;4.314;2023-01-06T09:37:46;13.60;99.90
17715;DHT22;8977;50.902;4.314;2023-01-06T09:40:16;13.60;99.90
17715;DHT22;8977;50.902;4.314;2023-01-06T09:42:53;13.60;99.90
17715;DHT22;8977;50.902;4.314;2023-01-06T09:45:32;13.60;99.90
17715;DHT22;8977;50.902;4.314;2023-01-06T09:48:02;13.60;99.90
17715;DHT22;8977;50.902;4.314;2023-01-06T09:50:37;13.70;99.90
17715;DHT22;8977;50.902;4.314;2023-01-06T09:53:10;13.60;99.90
17715;DHT22;8977;50.902;4.314;2023-01-06T09:55:42;13.60;99.90
17715;DHT22;8977;50.902;4.314;2023-01-06T09:58:13;13.60;99.90
17715;DHT22;8977;50.902;4.314;2023-01-06T10:00:44;13.60;99.90
17715;DHT22;8977;50.902;4.314;2023-01-06T10:03:12;13.60;99.90
17715;DHT22;8977;50.902;4.314;2023-01-06T10:05:47;13.70;99.90
17715;DHT22;8977;50.902;4.314;2023-01-06T10:08:24;13.70;99.90
17715;DHT22;8977;50.902;4.314;2023-01-06T10:11:07;13.70;99.90
17715;DHT22;8977;50.902;4.314;2023-01-06T10:13:45;13.70;99.90
17715;DHT22;8977;50.902;4.314;2023-01-06T10:16:21;13.60;99.90
17715;DHT22;8977;50.902;4.314;2023-01-06T10:18:56;13.60;99.90
17715;DHT22;8977;50.902;4.314;2023-01-06T10:21:28;13.70;99.90
17715;DHT22;8977;50.902;4.314;2023-01-06T10:24:15;13.70;99.90
17715;DHT22;8977;50.902;4.314;2023-01-06T10:26:50;13.70;99.90
17715;DHT22;8977;50.902;4.314;2023-01-06T10:29:24;13.70;99.90
17715;DHT22;8977;50.902;4.314;2023-01-06T10:31:56;13.60;99.90
17715;DHT22;8977;50.902;4.314;2023-01-06T10:34:26;13.60;99.90
17715;DHT22;8977;50.902;4.314;2023-01-06T10:37:01;13.60;99.90
17715;DHT22;8977;50.902;4.314;2023-01-06T10:39:34;13.70;99.90
17715;DHT22;8977;50.902;4.314;2023-01-06T10:42:09;13.60;99.90
17715;DHT22;8977;50.902;4.314;2023-01-06T10:44:56;13.60;99.90
17715;DHT22;8977;50.902;4.314;2023-01-06T10:47:27;13.50;99.90
17715;DHT22;8977;50.902;4.314;2023-01-06T10:49:54;13.60;99.90
17715;DHT22;8977;50.902;4.314;2023-01-06T10:52:21;13.60;99.90
17715;DHT22;8977;50.902;4.314;2023-01-06T10:54:52;13.60;99.90
17715;DHT22;8977;50.902;4.314;2023-01-06T10:57:22;13.70;99.90
17715;DHT22;8977;50.902;4.314;2023-01-06T11:00:10;13.70;99.90
17715;DHT22;8977;50.902;4.314;2023-01-06T11:02:42;13.70;99.90
17715;DHT22;8977;50.902;4.314;2023-01-06T11:05:15;13.70;99.90
17715;DHT22;8977;50.902;4.314;2023-01-06T11:07:48;13.70;99.90
17715;DHT22;8977;50.902;4.314;2023-01-06T11:10:28;13.70;99.90
17715;DHT22;8977;50.902;4.314;2023-01-06T11:12:56;13.80;99.90
17715;DHT22;8977;50.902;4.314;2023-01-06T11:15:31;13.70;99.90
17715;DHT22;8977;50.902;4.314;2023-01-06T11:18:02;13.70;99.90
17715;DHT22;8977;50.902;4.314;2023-01-06T11:20:31;13.70;99.90
17715;DHT22;8977;50.902;4.314;2023-01-06T11:23:20;13.80;99.90
17715;DHT22;8977;50.902;4.314;2023-01-06T11:26:00;13.70;99.90
17715;DHT22;8977;50.902;4.314;2023-01-06T11:28:27;13.80;99.90
17715;DHT22;8977;50.902;4.314;2023-01-06T11:30:57;13.80;99.90
17715;DHT22;8977;50.902;4.314;2023-01-06T11:33:28;13.70;99.90
17715;DHT22;8977;50.902;4.314;2023-01-06T11:35:56;13.70;99.90
17715;DHT22;8977;50.902;4.314;2023-01-06T11:38:24;13.80;99.90
17715;DHT22;8977;50.902;4.314;2023-01-06T11:40:52;13.80;99.90
17715;DHT22;8977;50.902;4.314;2023-01-06T11:43:21;13.80;99.90
17715;DHT22;8977;50.902;4.314;2023-01-06T11:45:53;13.70;99.90
17715;DHT22;8977;50.902;4.314;2023-01-06T11:48:24;13.80;99.90
17715;DHT22;8977;50.902;4.314;2023-01-06T11:50:56;13.70;99.90
17715;DHT22;8977;50.902;4.314;2023-01-06T11:53:24;13.80;99.90
17715;DHT22;8977;50.902;4.314;2023-01-06T11:55:56;13.80;99.90
17715;DHT22;8977;50.902;4.314;2023-01-06T11:58:31;13.80;99.90
17715;DHT22;8977;50.902;4.314;2023-01-06T12:01:05;13.80;99.90
17715;DHT22;8977;50.902;4.314;2023-01-06T12:03:37;13.70;99.90
17715;DHT22;8977;50.902;4.314;2023-01-06T12:06:17;13.70;99.90
17715;DHT22;8977;50.902;4.314;2023-01-06T12:08:52;13.70;99.90
17715;DHT22;8977;50.902;4.314;2023-01-06T12:11:26;13.70;99.90
17715;DHT22;8977;50.902;4.314;2023-01-06T12:13:56;13.70;99.90
17715;DHT22;8977;50.902;4.314;2023-01-06T12:16:32;13.70;99.90
17715;DHT22;8977;50.902;4.314;2023-01-06T12:19:01;13.80;99.90
17715;DHT22;8977;50.902;4.314;2023-01-06T12:21:30;13.80;99.90
17715;DHT22;8977;50.902;4.314;2023-01-06T12:24:00;13.80;99.90
17715;DHT22;8977;50.902;4.314;2023-01-06T12:26:29;13.80;99.90
17715;DHT22;8977;50.902;4.314;2023-01-06T12:28:58;13.80;99.90
17715;DHT22;8977;50.902;4.314;2023-01-06T12:31:29;13.80;99.90
17715;DHT22;8977;50.902;4.314;2023-01-06T12:34:04;13.80;99.90
17715;DHT22;8977;50.902;4.314;2023-01-06T12:36:36;13.70;99.90
17715;DHT22;8977;50.902;4.314;2023-01-06T12:39:11;13.80;99.90
17715;DHT22;8977;50.902;4.314;2023-01-06T12:41:40;13.80;99.90
17715;DHT22;8977;50.902;4.314;2023-01-06T12:44:15;13.90;99.90
17715;DHT22;8977;50.902;4.314;2023-01-06T12:46:50;13.80;99.90
17715;DHT22;8977;50.902;4.314;2023-01-06T12:49:33;13.80;99.90
17715;DHT22;8977;50.902;4.314;2023-01-06T12:52:08;13.80;99.90
17715;DHT22;8977;50.902;4.314;2023-01-06T12:54:36;13.80;99.90
17715;DHT22;8977;50.902;4.314;2023-01-06T12:57:16;13.80;99.90
17715;DHT22;8977;50.902;4.314;2023-01-06T12:59:57;13.80;99.90
17715;DHT22;8977;50.902;4.314;2023-01-06T13:02:41;13.80;99.90
17715;DHT22;8977;50.902;4.314;2023-01-06T13:05:23;13.80;99.90
17715;DHT22;8977;50.902;4.314;2023-01-06T13:08:05;13.70;99.90
17715;DHT22;8977;50.902;4.314;2023-01-06T13:10:36;13.80;99.90
17715;DHT22;8977;50.902;4.314;2023-01-06T13:16:08;13.90;99.90
17715;DHT22;8977;50.902;4.314;2023-01-06T13:18:42;13.80;99.90
17715;DHT22;8977;50.902;4.314;2023-01-06T13:21:13;13.80;99.90
17715;DHT22;8977;50.902;4.314;2023-01-06T13:24:06;13.80;99.90
17715;DHT22;8977;50.902;4.314;2023-01-06T13:26:45;13.80;99.90
17715;DHT22;8977;50.902;4.314;2023-01-06T13:29:25;13.90;99.90
17715;DHT22;8977;50.902;4.314;2023-01-06T13:32:19;13.90;99.90
17715;DHT22;8977;50.902;4.314;2023-01-06T13:35:05;13.90;99.90
17715;DHT22;8977;50.902;4.314;2023-01-06T13:37:39;13.90;99.90
17715;DHT22;8977;50.902;4.314;2023-01-06T13:40:12;13.90;99.90
17715;DHT22;8977;50.902;4.314;2023-01-06T13:42:44;13.90;99.90
17715;DHT22;8977;50.902;4.314;2023-01-06T13:45:16;13.90;99.90
17715;DHT22;8977;50.902;4.314;2023-01-06T13:47:44;14.00;99.90
17715;DHT22;8977;50.902;4.314;2023-01-06T13:50:14;13.90;99.90
17715;DHT22;8977;50.902;4.314;2023-01-06T13:52:42;14.00;99.90
17715;DHT22;8977;50.902;4.314;2023-01-06T13:55:25;14.00;99.90
17715;DHT22;8977;50.902;4.314;2023-01-06T13:57:53;14.00;99.90
17715;DHT22;8977;50.902;4.314;2023-01-06T14:00:22;14.00;99.90
17715;DHT22;8977;50.902;4.314;2023-01-06T14:05:52;14.00;99.90
17715;DHT22;8977;50.902;4.314;2023-01-06T14:08:20;14.10;99.90
17715;DHT22;8977;50.902;4.314;2023-01-06T14:10:58;14.00;99.90
17715;DHT22;8977;50.902;4.314;2023-01-06T14:13:30;14.20;99.90
17715;DHT22;8977;50.902;4.314;2023-01-06T14:16:01;14.10;99.90
17715;DHT22;8977;50.902;4.314;2023-01-06T14:18:30;14.10;99.90
17715;DHT22;8977;50.902;4.314;2023-01-06T14:21:01;14.10;99.90
17715;DHT22;8977;50.902;4.314;2023-01-06T14:23:29;14.10;99.90
17715;DHT22;8977;50.902;4.314;2023-01-06T14:25:57;14.10;99.90
17715;DHT22;8977;50.902;4.314;2023-01-06T14:28:28;14.10;99.90
17715;DHT22;8977;50.902;4.314;2023-01-06T14:34:12;14.10;99.90
17715;DHT22;8977;50.902;4.314;2023-01-06T14:36:39;14.10;99.90
17715;DHT22;8977;50.902;4.314;2023-01-06T14:39:09;14.00;99.90
17715;DHT22;8977;50.902;4.314;2023-01-06T14:41:50;14.00;99.90
17715;DHT22;8977;50.902;4.314;2023-01-06T14:44:23;14.10;99.90
17715;DHT22;8977;50.902;4.314;2023-01-06T14:46:53;14.10;99.90
17715;DHT22;8977;50.902;4.314;2023-01-06T14:49:23;14.00;99.90
17715;DHT22;8977;50.902;4.314;2023-01-06T14:51:53;14.10;99.90
17715;DHT22;8977;50.902;4.314;2023-01-06T14:54:25;14.10;99.90
17715;DHT22;8977;50.902;4.314;2023-01-06T14:56:57;14.10;99.90
17715;DHT22;8977;50.902;4.314;2023-01-06T14:59:24;14.10;99.90
17715;DHT22;8977;50.902;4.314;2023-01-06T15:01:59;14.10;99.90
17715;DHT22;8977;50.902;4.314;2023-01-06T15:04:28;14.10;99.90
17715;DHT22;8977;50.902;4.314;2023-01-06T15:07:14;14.20;99.90
17715;DHT22;8977;50.902;4.314;2023-01-06T15:09:42;14.10;99.90
17715;DHT22;8977;50.902;4.314;2023-01-06T15:12:24;14.10;99.90
17715;DHT22;8977;50.902;4.314;2023-01-06T15:14:51;14.10;99.90
17715;DHT22;8977;50.902;4.314;2023-01-06T15:17:19;14.10;99.90
17715;DHT22;8977;50.902;4.314;2023-01-06T15:19:47;14.10;99.90
17715;DHT22;8977;50.902;4.314;2023-01-06T15:22:18;14.10;99.90
17715;DHT22;8977;50.902;4.314;2023-01-06T15:24:46;14.10;99.90
17715;DHT22;8977;50.902;4.314;2023-01-06T15:27:15;14.10;99.90
17715;DHT22;8977;50.902;4.314;2023-01-06T15:29:50;14.10;99.90
17715;DHT22;8977;50.902;4.314;2023-01-06T15:32:17;14.10;99.90
17715;DHT22;8977;50.902;4.314;2023-01-06T15:34:45;14.10;99.90
17715;DHT22;8977;50.902;4.314;2023-01-06T15:37:17;14.00;99.90
17715;DHT22;8977;50.902;4.314;2023-01-06T15:39:44;14.00;99.90
17715;DHT22;8977;50.902;4.314;2023-01-06T15:42:12;14.00;99.90
17715;DHT22;8977;50.902;4.314;2023-01-06T15:44:40;14.10;99.90
17715;DHT22;8977;50.902;4.314;2023-01-06T15:47:27;14.10;99.90
17715;DHT22;8977;50.902;4.314;2023-01-06T15:49:57;14.00;99.90
17715;DHT22;8977;50.902;4.314;2023-01-06T15:52:28;14.00;99.90
17715;DHT22;8977;50.902;4.314;2023-01-06T15:54:59;14.00;99.90
17715;DHT22;8977;50.902;4.314;2023-01-06T15:57:30;14.00;99.90
17715;DHT22;8977;50.902;4.314;2023-01-06T16:00:00;14.00;99.90
17715;DHT22;8977;50.902;4.314;2023-01-06T16:02:30;14.10;99.90
17715;DHT22;8977;50.902;4.314;2023-01-06T16:04:57;14.10;99.90
17715;DHT22;8977;50.902;4.314;2023-01-06T16:07:36;14.00;99.90
17715;DHT22;8977;50.902;4.314;2023-01-06T16:10:30;14.00;99.90
17715;DHT22;8977;50.902;4.314;2023-01-06T16:13:20;14.00;99.90
17715;DHT22;8977;50.902;4.314;2023-01-06T16:15:50;14.00;99.90
17715;DHT22;8977;50.902;4.314;2023-01-06T16:18:27;14.00;99.90
17715;DHT22;8977;50.902;4.314;2023-01-06T16:20:55;13.90;99.90